sensor_id;sensor_type;location;lat;lon;timestamp;pressure;altitude;pressure_sealevel;temperature;humidity
13027;BME280;6580;42.680;23.324;2023-02-10T00:01:39;97125.66;;;-3.09;80.88
13027;BME280;6580;42.680;23.324;2023-02-10T00:04:06;97104.78;;;-3.08;77.96
13027;BME280;6580;42.680;23.324;2023-02-10T00:06:34;97107.34;;;-3.06;73.67
13027;BME280;6580;42.680;23.324;2023-02-10T00:09:04;97118.19;;;-2.85;70.01
13027;BME280;6580;42.680;23.324;2023-02-10T00:11:32;97109.09;;;-3.07;69.37
13027;BME280;6580;42.680;23.324;2023-02-10T00:14:18;97118.78;;;-3.13;70.71
13027;BME280;6580;42.680;23.324;2023-02-10T00:16:45;97101.59;;;-3.23;70.36
13027;BME280;6580;42.680;23.324;2023-02-10T00:19:18;97106.22;;;-2.94;70.68
13027;BME280;6580;42.680;23.324;2023-02-10T00:21:45;97112.25;;;-2.93;70.83
13027;BME280;6580;42.680;23.324;2023-02-10T00:24:14;97107.06;;;-2.93;70.09
13027;BME280;6580;42.680;23.324;2023-02-10T00:26:41;97113.78;;;-2.83;70.20
13027;BME280;6580;42.680;23.324;2023-02-10T00:29:09;97105.72;;;-3.10;70.80
13027;BME280;6580;42.680;23.324;2023-02-10T00:31:37;97085.59;;;-3.04;69.46
13027;BME280;6580;42.680;23.324;2023-02-10T00:34:05;97103.66;;;-2.97;69.79
13027;BME280;6580;42.680;23.324;2023-02-10T00:36:33;97098.13;;;-2.82;68.20
13027;BME280;6580;42.680;23.324;2023-02-10T00:39:00;97098.38;;;-2.94;68.85
13027;BME280;6580;42.680;23.324;2023-02-10T00:41:30;97097.78;;;-3.07;70.05
13027;BME280;6580;42.680;23.324;2023-02-10T00:43:57;97097.94;;;-3.13;70.69
13027;BME280;6580;42.680;23.324;2023-02-10T00:46:24;97077.31;;;-3.24;70.12
13027;BME280;6580;42.680;23.324;2023-02-10T00:48:52;97086.94;;;-3.27;70.87
13027;BME280;6580;42.680;23.324;2023-02-10T00:51:19;97091.69;;;-3.05;70.29
13027;BME280;6580;42.680;23.324;2023-02-10T00:53:51;97079.44;;;-3.02;68.85
13027;BME280;6580;42.680;23.324;2023-02-10T00:56:18;97084.66;;;-3.02;69.20
13027;BME280;6580;42.680;23.324;2023-02-10T00:58:47;97084.78;;;-3.07;69.66
13027;BME280;6580;42.680;23.324;2023-02-10T01:01:14;97083.06;;;-3.08;69.95
13027;BME280;6580;42.680;23.324;2023-02-10T01:03:41;97085.97;;;-3.22;70.99
13027;BME280;6580;42.680;23.324;2023-02-10T01:06:09;97081.97;;;-3.39;72.22
13027;BME280;6580;42.680;23.324;2023-02-10T01:08:37;97078.59;;;-3.44;72.83
13027;BME280;6580;42.680;23.324;2023-02-10T01:11:05;97062.75;;;-3.34;72.06
13027;BME280;6580;42.680;23.324;2023-02-10T01:13:33;97078.53;;;-3.41;72.55
13027;BME280;6580;42.680;23.324;2023-02-10T01:16:04;97083.88;;;-3.47;73.68
13027;BME280;6580;42.680;23.324;2023-02-10T01:18:32;97079.38;;;-3.39;73.28
13027;BME280;6580;42.680;23.324;2023-02-10T01:21:06;97075.06;;;-3.40;73.16
13027;BME280;6580;42.680;23.324;2023-02-10T01:23:38;97074.22;;;-3.42;73.71
13027;BME280;6580;42.680;23.324;2023-02-10T01:26:06;97073.44;;;-3.46;73.50
13027;BME280;6580;42.680;23.324;2023-02-10T01:28:33;97066.41;;;-3.41;73.63
13027;BME280;6580;42.680;23.324;2023-02-10T01:31:06;97065.72;;;-3.52;74.93
13027;BME280;6580;42.680;23.324;2023-02-10T01:33:34;97058.59;;;-3.41;74.16
13027;BME280;6580;42.680;23.324;2023-02-10T01:36:03;97061.88;;;-3.33;73.48
13027;BME280;6580;42.680;23.324;2023-02-10T01:38:32;97062.97;;;-3.44;73.17
13027;BME280;6580;42.680;23.324;2023-02-10T01:40:59;97065.69;;;-3.49;73.26
13027;BME280;6580;42.680;23.324;2023-02-10T01:43:26;97035.47;;;-3.57;72.52
13027;BME280;6580;42.680;23.324;2023-02-10T01:45:55;97054.41;;;-3.49;71.84
13027;BME280;6580;42.680;23.324;2023-02-10T01:48:25;97032.28;;;-3.71;71.20
13027;BME280;6580;42.680;23.324;2023-02-10T01:50:54;97054.84;;;-3.70;71.78
13027;BME280;6580;42.680;23.324;2023-02-10T01:53:26;97032.53;;;-3.83;72.62
13027;BME280;6580;42.680;23.324;2023-02-10T01:55:55;97053.22;;;-3.77;72.51
13027;BME280;6580;42.680;23.324;2023-02-10T01:58:30;97046.09;;;-3.66;72.34
13027;BME280;6580;42.680;23.324;2023-02-10T02:00:59;97041.91;;;-3.75;72.67
13027;BME280;6580;42.680;23.324;2023-02-10T02:03:27;97035.16;;;-3.83;72.39
13027;BME280;6580;42.680;23.324;2023-02-10T02:05:54;97032.69;;;-3.92;72.61
13027;BME280;6580;42.680;23.324;2023-02-10T02:08:22;97033.13;;;-3.69;72.57
13027;BME280;6580;42.680;23.324;2023-02-10T02:11:06;97029.59;;;-3.65;70.51
13027;BME280;6580;42.680;23.324;2023-02-10T02:16:57;97013.66;;;-3.93;71.46
13027;BME280;6580;42.680;23.324;2023-02-10T02:20:04;97023.75;;;-3.79;72.18
13027;BME280;6580;42.680;23.324;2023-02-10T02:23:13;97014.31;;;-3.83;71.86
13027;BME280;6580;42.680;23.324;2023-02-10T02:29:17;97011.44;;;-4.13;72.48
13027;BME280;6580;42.680;23.324;2023-02-10T02:31:59;97012.50;;;-4.25;73.41
13027;BME280;6580;42.680;23.324;2023-02-10T02:34:34;97022.69;;;-4.13;73.03
13027;BME280;6580;42.680;23.324;2023-02-10T02:37:08;97018.53;;;-4.23;73.25
13027;BME280;6580;42.680;23.324;2023-02-10T02:39:36;97013.25;;;-4.18;73.32
13027;BME280;6580;42.680;23.324;2023-02-10T02:42:18;97014.19;;;-4.21;72.90
13027;BME280;6580;42.680;23.324;2023-02-10T02:44:47;97006.28;;;-4.18;73.05
13027;BME280;6580;42.680;23.324;2023-02-10T02:47:32;97017.53;;;-4.16;73.59
13027;BME280;6580;42.680;23.324;2023-02-10T02:50:15;97015.66;;;-4.08;73.24
13027;BME280;6580;42.680;23.324;2023-02-10T02:52:54;97018.81;;;-4.38;74.30
13027;BME280;6580;42.680;23.324;2023-02-10T02:55:34;97013.53;;;-4.35;77.75
13027;BME280;6580;42.680;23.324;2023-02-10T02:58:10;97020.53;;;-4.38;79.78
13027;BME280;6580;42.680;23.324;2023-02-10T03:00:43;97009.31;;;-4.40;81.03
13027;BME280;6580;42.680;23.324;2023-02-10T03:03:14;97017.66;;;-4.23;80.90
13027;BME280;6580;42.680;23.324;2023-02-10T03:05:41;97013.94;;;-4.56;81.67
13027;BME280;6580;42.680;23.324;2023-02-10T03:08:10;97010.19;;;-4.40;81.78
13027;BME280;6580;42.680;23.324;2023-02-10T03:10:37;97007.72;;;-4.49;81.78
13027;BME280;6580;42.680;23.324;2023-02-10T03:13:04;97020.72;;;-4.49;82.50
13027;BME280;6580;42.680;23.324;2023-02-10T03:15:31;96995.16;;;-4.74;82.92
13027;BME280;6580;42.680;23.324;2023-02-10T03:17:58;97013.84;;;-4.51;81.92
13027;BME280;6580;42.680;23.324;2023-02-10T03:20:28;97012.28;;;-4.61;82.12
13027;BME280;6580;42.680;23.324;2023-02-10T03:22:55;97021.91;;;-4.68;82.76
13027;BME280;6580;42.680;23.324;2023-02-10T03:25:25;97022.03;;;-4.75;83.14
13027;BME280;6580;42.680;23.324;2023-02-10T03:27:52;97021.97;;;-4.71;82.70
13027;BME280;6580;42.680;23.324;2023-02-10T03:30:19;96983.09;;;-4.78;82.38
13027;BME280;6580;42.680;23.324;2023-02-10T03:32:46;97019.59;;;-4.84;82.54
13027;BME280;6580;42.680;23.324;2023-02-10T03:35:15;97018.09;;;-4.99;83.21
13027;BME280;6580;42.680;23.324;2023-02-10T03:37:45;97024.00;;;-4.91;84.00
13027;BME280;6580;42.680;23.324;2023-02-10T03:40:16;97015.34;;;-4.90;83.34
13027;BME280;6580;42.680;23.324;2023-02-10T03:42:44;97003.00;;;-4.76;82.31
13027;BME280;6580;42.680;23.324;2023-02-10T03:45:11;97002.09;;;-4.73;82.60
13027;BME280;6580;42.680;23.324;2023-02-10T03:47:40;96994.25;;;-4.72;81.60
13027;BME280;6580;42.680;23.324;2023-02-10T03:50:08;96999.63;;;-4.81;82.35
13027;BME280;6580;42.680;23.324;2023-02-10T03:52:38;97002.09;;;-4.73;83.53
13027;BME280;6580;42.680;23.324;2023-02-10T03:55:10;96998.25;;;-4.53;81.98
13027;BME280;6580;42.680;23.324;2023-02-10T03:57:40;96995.38;;;-4.36;80.34
13027;BME280;6580;42.680;23.324;2023-02-10T04:00:09;96992.09;;;-4.46;79.52
13027;BME280;6580;42.680;23.324;2023-02-10T04:02:37;96994.03;;;-4.57;79.74
13027;BME280;6580;42.680;23.324;2023-02-10T04:05:05;96995.84;;;-4.62;80.50
13027;BME280;6580;42.680;23.324;2023-02-10T04:07:32;96994.25;;;-4.72;80.84
13027;BME280;6580;42.680;23.324;2023-02-10T04:09:59;96990.91;;;-4.77;81.53
13027;BME280;6580;42.680;23.324;2023-02-10T04:12:28;96997.97;;;-4.86;82.42
13027;BME280;6580;42.680;23.324;2023-02-10T04:14:58;96984.56;;;-4.62;82.21
13027;BME280;6580;42.680;23.324;2023-02-10T04:17:25;96995.66;;;-4.51;80.40
13027;BME280;6580;42.680;23.324;2023-02-10T04:19:52;96984.66;;;-4.65;79.95
13027;BME280;6580;42.680;23.324;2023-02-10T04:22:21;96997.09;;;-4.87;81.09
13027;BME280;6580;42.680;23.324;2023-02-10T04:24:49;96983.97;;;-4.78;81.49
13027;BME280;6580;42.680;23.324;2023-02-10T04:27:16;96981.69;;;-4.96;82.57
13027;BME280;6580;42.680;23.324;2023-02-10T04:29:46;96996.19;;;-4.83;83.55
13027;BME280;6580;42.680;23.324;2023-02-10T04:32:13;96982.41;;;-4.88;84.75
13027;BME280;6580;42.680;23.324;2023-02-10T04:34:44;96997.97;;;-4.88;84.52
13027;BME280;6580;42.680;23.324;2023-02-10T04:37:11;96982.25;;;-4.79;84.41
13027;BME280;6580;42.680;23.324;2023-02-10T04:39:38;96999.44;;;-4.72;84.08
13027;BME280;6580;42.680;23.324;2023-02-10T04:42:05;96990.69;;;-4.65;82.23
13027;BME280;6580;42.680;23.324;2023-02-10T04:44:32;96999.66;;;-4.84;80.90
13027;BME280;6580;42.680;23.324;2023-02-10T04:47:02;96998.84;;;-4.87;80.07
13027;BME280;6580;42.680;23.324;2023-02-10T04:49:30;96995.47;;;-4.92;79.68
13027;BME280;6580;42.680;23.324;2023-02-10T04:51:57;97001.34;;;-4.80;79.29
13027;BME280;6580;42.680;23.324;2023-02-10T04:54:23;96999.94;;;-5.02;78.71
13027;BME280;6580;42.680;23.324;2023-02-10T04:56:50;97005.38;;;-5.16;79.92
13027;BME280;6580;42.680;23.324;2023-02-10T04:59:19;96994.22;;;-5.23;81.15
13027;BME280;6580;42.680;23.324;2023-02-10T05:01:48;96988.19;;;-5.26;81.23
13027;BME280;6580;42.680;23.324;2023-02-10T05:04:23;96999.34;;;-5.18;80.80
13027;BME280;6580;42.680;23.324;2023-02-10T05:06:50;97016.63;;;-5.17;81.70
13027;BME280;6580;42.680;23.324;2023-02-10T05:09:17;97019.03;;;-5.05;81.69
13027;BME280;6580;42.680;23.324;2023-02-10T05:11:44;97018.97;;;-5.00;80.73
13027;BME280;6580;42.680;23.324;2023-02-10T05:14:12;97014.41;;;-4.84;79.51
13027;BME280;6580;42.680;23.324;2023-02-10T05:16:39;97008.81;;;-5.14;80.45
13027;BME280;6580;42.680;23.324;2023-02-10T05:19:06;97018.13;;;-5.02;80.40
13027;BME280;6580;42.680;23.324;2023-02-10T05:21:40;97011.44;;;-5.17;80.10
13027;BME280;6580;42.680;23.324;2023-02-10T05:24:09;97046.78;;;-5.07;79.39
13027;BME280;6580;42.680;23.324;2023-02-10T05:26:36;97052.81;;;-5.05;79.82
13027;BME280;6580;42.680;23.324;2023-02-10T05:29:03;97045.13;;;-5.11;79.40
13027;BME280;6580;42.680;23.324;2023-02-10T05:31:33;97050.47;;;-5.23;78.69
13027;BME280;6580;42.680;23.324;2023-02-10T05:34:00;97064.47;;;-5.33;79.04
13027;BME280;6580;42.680;23.324;2023-02-10T05:36:28;97054.94;;;-5.34;78.66
13027;BME280;6580;42.680;23.324;2023-02-10T05:38:57;97060.06;;;-5.30;78.76
13027;BME280;6580;42.680;23.324;2023-02-10T05:41:42;97062.00;;;-5.44;80.50
13027;BME280;6580;42.680;23.324;2023-02-10T05:44:11;97064.53;;;-5.38;81.42
13027;BME280;6580;42.680;23.324;2023-02-10T05:46:41;97061.00;;;-5.34;81.64
13027;BME280;6580;42.680;23.324;2023-02-10T05:49:08;97067.75;;;-5.22;80.91
13027;BME280;6580;42.680;23.324;2023-02-10T05:51:36;97069.53;;;-5.27;80.02
13027;BME280;6580;42.680;23.324;2023-02-10T05:54:08;97081.78;;;-5.35;79.34
13027;BME280;6580;42.680;23.324;2023-02-10T05:56:39;97075.00;;;-5.47;79.31
13027;BME280;6580;42.680;23.324;2023-02-10T05:59:07;97078.31;;;-5.34;79.64
13027;BME280;6580;42.680;23.324;2023-02-10T06:01:36;97076.63;;;-5.38;79.90
13027;BME280;6580;42.680;23.324;2023-02-10T06:04:05;97079.19;;;-5.35;80.40
13027;BME280;6580;42.680;23.324;2023-02-10T06:06:35;97077.16;;;-5.14;79.51
13027;BME280;6580;42.680;23.324;2023-02-10T06:09:02;97072.91;;;-5.19;79.02
13027;BME280;6580;42.680;23.324;2023-02-10T06:11:31;97086.81;;;-5.22;79.26
13027;BME280;6580;42.680;23.324;2023-02-10T06:13:58;97082.94;;;-4.93;78.96
13027;BME280;6580;42.680;23.324;2023-02-10T06:16:27;97094.06;;;-4.83;78.11
13027;BME280;6580;42.680;23.324;2023-02-10T06:18:56;97090.66;;;-4.90;77.85
13027;BME280;6580;42.680;23.324;2023-02-10T06:21:23;97092.50;;;-4.95;78.06
13027;BME280;6580;42.680;23.324;2023-02-10T06:23:52;97095.81;;;-4.85;77.90
13027;BME280;6580;42.680;23.324;2023-02-10T06:26:19;97095.66;;;-4.76;77.11
13027;BME280;6580;42.680;23.324;2023-02-10T06:28:47;97093.16;;;-4.82;77.17
13027;BME280;6580;42.680;23.324;2023-02-10T06:31:14;97105.06;;;-4.66;77.16
13027;BME280;6580;42.680;23.324;2023-02-10T06:33:44;97098.31;;;-4.78;76.79
13027;BME280;6580;42.680;23.324;2023-02-10T06:36:11;97107.59;;;-4.63;77.16
13027;BME280;6580;42.680;23.324;2023-02-10T06:38:38;97104.78;;;-4.50;76.96
13027;BME280;6580;42.680;23.324;2023-02-10T06:41:08;97106.44;;;-4.44;76.55
13027;BME280;6580;42.680;23.324;2023-02-10T06:43:35;97102.34;;;-4.59;76.76
13027;BME280;6580;42.680;23.324;2023-02-10T06:46:05;97105.66;;;-4.51;76.68
13027;BME280;6580;42.680;23.324;2023-02-10T06:48:41;97102.69;;;-4.27;75.62
13027;BME280;6580;42.680;23.324;2023-02-10T06:51:13;97108.56;;;-3.68;73.55
13027;BME280;6580;42.680;23.324;2023-02-10T06:53:40;97106.88;;;-2.86;70.10
13027;BME280;6580;42.680;23.324;2023-02-10T06:56:09;97098.56;;;-2.27;66.04
13027;BME280;6580;42.680;23.324;2023-02-10T06:58:39;97102.06;;;-2.28;63.11
13027;BME280;6580;42.680;23.324;2023-02-10T07:01:16;97108.88;;;-2.21;63.64
13027;BME280;6580;42.680;23.324;2023-02-10T07:03:43;97111.09;;;-2.42;63.06
13027;BME280;6580;42.680;23.324;2023-02-10T07:06:11;97120.56;;;-3.15;65.14
13027;BME280;6580;42.680;23.324;2023-02-10T07:08:38;97125.47;;;-3.44;66.89
13027;BME280;6580;42.680;23.324;2023-02-10T07:11:08;97118.53;;;-3.45;68.26
13027;BME280;6580;42.680;23.324;2023-02-10T07:13:36;97111.56;;;-3.43;68.05
13027;BME280;6580;42.680;23.324;2023-02-10T07:16:05;97104.63;;;-3.44;68.65
13027;BME280;6580;42.680;23.324;2023-02-10T07:18:34;97109.09;;;-3.51;68.99
13027;BME280;6580;42.680;23.324;2023-02-10T07:21:04;97101.66;;;-3.26;68.94
13027;BME280;6580;42.680;23.324;2023-02-10T07:23:31;97099.22;;;-3.32;68.07
13027;BME280;6580;42.680;23.324;2023-02-10T07:26:01;97099.56;;;-3.50;68.12
13027;BME280;6580;42.680;23.324;2023-02-10T07:28:30;97110.63;;;-3.39;69.14
13027;BME280;6580;42.680;23.324;2023-02-10T07:30:57;97109.72;;;-3.38;68.75
13027;BME280;6580;42.680;23.324;2023-02-10T07:33:24;97104.22;;;-3.23;68.81
13027;BME280;6580;42.680;23.324;2023-02-10T07:35:54;97104.94;;;-3.15;67.72
13027;BME280;6580;42.680;23.324;2023-02-10T07:38:21;97085.34;;;-3.34;68.14
13027;BME280;6580;42.680;23.324;2023-02-10T07:40:47;97101.34;;;-3.52;68.63
13027;BME280;6580;42.680;23.324;2023-02-10T07:43:15;97105.25;;;-3.30;68.23
13027;BME280;6580;42.680;23.324;2023-02-10T07:45:44;97096.50;;;-3.28;67.87
13027;BME280;6580;42.680;23.324;2023-02-10T07:48:18;97090.00;;;-3.50;68.71
13027;BME280;6580;42.680;23.324;2023-02-10T07:50:46;97096.81;;;-3.44;68.94
13027;BME280;6580;42.680;23.324;2023-02-10T07:53:17;97091.69;;;-3.05;67.64
13027;BME280;6580;42.680;23.324;2023-02-10T07:55:45;97094.81;;;-2.90;65.62
13027;BME280;6580;42.680;23.324;2023-02-10T07:58:12;97104.81;;;-3.11;65.35
13027;BME280;6580;42.680;23.324;2023-02-10T08:00:39;97111.25;;;-2.88;66.37
13027;BME280;6580;42.680;23.324;2023-02-10T08:03:08;97109.16;;;-2.71;65.20
13027;BME280;6580;42.680;23.324;2023-02-10T08:05:35;97102.19;;;-2.70;64.61
13027;BME280;6580;42.680;23.324;2023-02-10T08:08:02;97104.97;;;-2.78;63.98
13027;BME280;6580;42.680;23.324;2023-02-10T08:10:31;97101.59;;;-2.83;64.71
13027;BME280;6580;42.680;23.324;2023-02-10T08:12:58;97104.31;;;-2.87;64.60
13027;BME280;6580;42.680;23.324;2023-02-10T08:15:26;97076.31;;;-2.79;64.38
13027;BME280;6580;42.680;23.324;2023-02-10T08:17:53;97091.56;;;-2.61;63.34
13027;BME280;6580;42.680;23.324;2023-02-10T08:20:20;97083.91;;;-2.69;63.56
13027;BME280;6580;42.680;23.324;2023-02-10T08:22:47;97071.13;;;-2.43;62.81
13027;BME280;6580;42.680;23.324;2023-02-10T08:25:14;97081.16;;;-2.26;62.34
13027;BME280;6580;42.680;23.324;2023-02-10T08:27:44;97080.13;;;-2.19;61.75
13027;BME280;6580;42.680;23.324;2023-02-10T08:30:12;97093.53;;;-2.00;61.03
13027;BME280;6580;42.680;23.324;2023-02-10T08:32:40;97088.00;;;-1.88;59.99
13027;BME280;6580;42.680;23.324;2023-02-10T08:35:07;97084.47;;;-1.85;59.58
13027;BME280;6580;42.680;23.324;2023-02-10T08:37:34;97077.59;;;-1.89;59.18
13027;BME280;6580;42.680;23.324;2023-02-10T08:40:06;97081.38;;;-1.67;58.59
13027;BME280;6580;42.680;23.324;2023-02-10T08:42:36;97081.16;;;-1.60;58.31
13027;BME280;6580;42.680;23.324;2023-02-10T08:45:06;97064.28;;;-1.80;57.93
13027;BME280;6580;42.680;23.324;2023-02-10T08:47:35;97068.72;;;-1.82;58.56
13027;BME280;6580;42.680;23.324;2023-02-10T08:50:04;97077.84;;;-1.34;58.20
13027;BME280;6580;42.680;23.324;2023-02-10T08:52:35;97077.31;;;-0.88;56.28
13027;BME280;6580;42.680;23.324;2023-02-10T08:55:06;97060.81;;;-0.07;55.03
13027;BME280;6580;42.680;23.324;2023-02-10T08:57:40;97071.63;;;-0.45;54.23
13027;BME280;6580;42.680;23.324;2023-02-10T09:00:11;97071.38;;;0.41;52.40
13027;BME280;6580;42.680;23.324;2023-02-10T09:02:39;97056.81;;;0.57;50.88
13027;BME280;6580;42.680;23.324;2023-02-10T09:05:11;97049.25;;;1.18;49.79
13027;BME280;6580;42.680;23.324;2023-02-10T09:07:40;97044.16;;;1.37;48.53
13027;BME280;6580;42.680;23.324;2023-02-10T09:10:09;97043.19;;;1.82;48.10
13027;BME280;6580;42.680;23.324;2023-02-10T09:12:39;97030.94;;;2.44;46.97
13027;BME280;6580;42.680;23.324;2023-02-10T09:15:07;97032.66;;;2.65;44.88
13027;BME280;6580;42.680;23.324;2023-02-10T09:17:35;97033.94;;;2.75;45.15
13027;BME280;6580;42.680;23.324;2023-02-10T09:20:02;97021.16;;;3.78;44.30
13027;BME280;6580;42.680;23.324;2023-02-10T09:22:30;97021.91;;;3.26;44.30
13027;BME280;6580;42.680;23.324;2023-02-10T09:24:57;97028.44;;;4.25;42.33
13027;BME280;6580;42.680;23.324;2023-02-10T09:27:25;97026.44;;;3.78;42.07
13027;BME280;6580;42.680;23.324;2023-02-10T09:29:52;97032.44;;;3.81;42.18
13027;BME280;6580;42.680;23.324;2023-02-10T09:32:18;97018.28;;;4.34;41.30
13027;BME280;6580;42.680;23.324;2023-02-10T09:34:47;97016.50;;;5.33;39.17
13027;BME280;6580;42.680;23.324;2023-02-10T09:37:14;97012.34;;;5.60;37.97
13027;BME280;6580;42.680;23.324;2023-02-10T09:39:41;96997.97;;;6.26;38.07
13027;BME280;6580;42.680;23.324;2023-02-10T09:42:10;96991.53;;;7.03;36.66
13027;BME280;6580;42.680;23.324;2023-02-10T09:44:44;96992.94;;;7.22;35.89
13027;BME280;6580;42.680;23.324;2023-02-10T09:47:26;96989.38;;;7.77;34.24
13027;BME280;6580;42.680;23.324;2023-02-10T09:50:24;96996.91;;;6.44;35.28
13027;BME280;6580;42.680;23.324;2023-02-10T09:53:12;96996.56;;;6.05;36.41
13027;BME280;6580;42.680;23.324;2023-02-10T09:55:44;96986.13;;;7.04;35.65
13027;BME280;6580;42.680;23.324;2023-02-10T09:58:17;96979.69;;;8.16;33.10
13027;BME280;6580;42.680;23.324;2023-02-10T10:00:46;96981.66;;;8.27;33.09
13027;BME280;6580;42.680;23.324;2023-02-10T10:03:18;96980.25;;;7.41;34.64
13027;BME280;6580;42.680;23.324;2023-02-10T10:05:57;96964.66;;;6.37;34.40
13027;BME280;6580;42.680;23.324;2023-02-10T10:08:35;96966.00;;;7.56;34.24
13027;BME280;6580;42.680;23.324;2023-02-10T10:11:22;96949.88;;;8.52;31.67
13027;BME280;6580;42.680;23.324;2023-02-10T10:13:50;96959.75;;;7.71;32.22
13027;BME280;6580;42.680;23.324;2023-02-10T10:16:31;96941.38;;;7.27;33.03
13027;BME280;6580;42.680;23.324;2023-02-10T10:19:13;96957.59;;;7.63;32.98
13027;BME280;6580;42.680;23.324;2023-02-10T10:21:51;96953.50;;;6.90;33.59
13027;BME280;6580;42.680;23.324;2023-02-10T10:24:33;96935.41;;;8.43;32.53
13027;BME280;6580;42.680;23.324;2023-02-10T10:27:17;96937.16;;;8.30;32.07
13027;BME280;6580;42.680;23.324;2023-02-10T10:29:51;96926.31;;;8.97;30.89
13027;BME280;6580;42.680;23.324;2023-02-10T10:32:31;96920.09;;;9.70;30.31
13027;BME280;6580;42.680;23.324;2023-02-10T10:35:00;96917.34;;;10.41;29.31
13027;BME280;6580;42.680;23.324;2023-02-10T10:37:30;96914.00;;;9.80;29.24
13027;BME280;6580;42.680;23.324;2023-02-10T10:40:02;96898.06;;;9.91;29.45
13027;BME280;6580;42.680;23.324;2023-02-10T10:42:40;96909.69;;;9.67;29.02
13027;BME280;6580;42.680;23.324;2023-02-10T10:45:14;96902.50;;;10.26;28.52
13027;BME280;6580;42.680;23.324;2023-02-10T10:47:46;96904.69;;;10.78;28.34
13027;BME280;6580;42.680;23.324;2023-02-10T10:50:18;96882.69;;;11.09;27.60
13027;BME280;6580;42.680;23.324;2023-02-10T10:52:49;96897.72;;;11.64;27.37
13027;BME280;6580;42.680;23.324;2023-02-10T10:55:22;96883.88;;;10.94;27.21
13027;BME280;6580;42.680;23.324;2023-02-10T10:57:52;96893.53;;;10.62;28.12
13027;BME280;6580;42.680;23.324;2023-02-10T11:00:23;96877.59;;;11.38;26.86
13027;BME280;6580;42.680;23.324;2023-02-10T11:02:54;96869.94;;;10.79;27.55
13027;BME280;6580;42.680;23.324;2023-02-10T11:05:22;96881.34;;;11.47;26.90
13027;BME280;6580;42.680;23.324;2023-02-10T11:07:56;96874.44;;;11.22;26.83
13027;BME280;6580;42.680;23.324;2023-02-10T11:10:27;96859.75;;;11.72;26.72
13027;BME280;6580;42.680;23.324;2023-02-10T11:12:55;96871.91;;;11.96;26.37
13027;BME280;6580;42.680;23.324;2023-02-10T11:15:30;96870.38;;;10.51;27.60
13027;BME280;6580;42.680;23.324;2023-02-10T11:17:58;96852.72;;;9.69;28.85
13027;BME280;6580;42.680;23.324;2023-02-10T11:20:28;96872.63;;;10.34;28.04
13027;BME280;6580;42.680;23.324;2023-02-10T11:22:58;96859.97;;;10.14;28.64
13027;BME280;6580;42.680;23.324;2023-02-10T11:25:28;96858.75;;;10.41;28.30
13027;BME280;6580;42.680;23.324;2023-02-10T11:27:57;96850.38;;;11.66;27.60
13027;BME280;6580;42.680;23.324;2023-02-10T11:30:27;96847.28;;;12.24;26.47
13027;BME280;6580;42.680;23.324;2023-02-10T11:32:56;96836.31;;;12.47;26.10
13027;BME280;6580;42.680;23.324;2023-02-10T11:35:24;96830.59;;;12.72;25.63
13027;BME280;6580;42.680;23.324;2023-02-10T11:37:53;96842.41;;;12.29;25.55
13027;BME280;6580;42.680;23.324;2023-02-10T11:40:25;96844.56;;;12.55;25.74
13027;BME280;6580;42.680;23.324;2023-02-10T11:42:54;96823.44;;;11.80;26.09
13027;BME280;6580;42.680;23.324;2023-02-10T11:45:24;96835.91;;;10.72;27.17
13027;BME280;6580;42.680;23.324;2023-02-10T11:48:04;96837.56;;;9.82;27.88
13027;BME280;6580;42.680;23.324;2023-02-10T11:50:33;96841.09;;;10.62;27.70
13027;BME280;6580;42.680;23.324;2023-02-10T11:53:02;96836.81;;;12.32;26.11
13027;BME280;6580;42.680;23.324;2023-02-10T11:55:38;96826.72;;;12.86;24.76
13027;BME280;6580;42.680;23.324;2023-02-10T11:58:33;96825.19;;;12.22;26.14
13027;BME280;6580;42.680;23.324;2023-02-10T12:04:27;96815.66;;;12.90;24.94
13027;BME280;6580;42.680;23.324;2023-02-10T12:07:13;96806.00;;;13.47;24.01
13027;BME280;6580;42.680;23.324;2023-02-10T12:09:46;96810.09;;;14.19;23.88
13027;BME280;6580;42.680;23.324;2023-02-10T12:12:23;96799.94;;;14.87;22.92
13027;BME280;6580;42.680;23.324;2023-02-10T12:15:02;96795.53;;;14.12;22.85
13027;BME280;6580;42.680;23.324;2023-02-10T12:17:38;96789.81;;;13.00;24.71
13027;BME280;6580;42.680;23.324;2023-02-10T12:20:25;96789.25;;;12.56;24.63
13027;BME280;6580;42.680;23.324;2023-02-10T12:23:15;96785.00;;;13.33;23.80
13027;BME280;6580;42.680;23.324;2023-02-10T12:25:54;96788.53;;;11.93;25.20
13027;BME280;6580;42.680;23.324;2023-02-10T12:28:33;96790.53;;;12.11;25.02
13027;BME280;6580;42.680;23.324;2023-02-10T12:31:13;96791.34;;;12.73;24.73
13027;BME280;6580;42.680;23.324;2023-02-10T12:33:50;96784.84;;;12.25;25.27
13027;BME280;6580;42.680;23.324;2023-02-10T12:36:30;96787.59;;;12.34;24.45
13027;BME280;6580;42.680;23.324;2023-02-10T12:39:09;96782.16;;;12.66;24.30
13027;BME280;6580;42.680;23.324;2023-02-10T12:41:52;96775.25;;;12.63;24.41
13027;BME280;6580;42.680;23.324;2023-02-10T12:44:36;96781.09;;;12.78;24.55
13027;BME280;6580;42.680;23.324;2023-02-10T12:47:18;96771.63;;;12.44;25.00
13027;BME280;6580;42.680;23.324;2023-02-10T12:50:02;96766.63;;;12.80;25.22
13027;BME280;6580;42.680;23.324;2023-02-10T12:52:34;96773.94;;;12.58;24.71
13027;BME280;6580;42.680;23.324;2023-02-10T12:55:14;96755.31;;;13.46;23.83
13027;BME280;6580;42.680;23.324;2023-02-10T12:57:46;96762.13;;;13.97;23.39
13027;BME280;6580;42.680;23.324;2023-02-10T13:00:21;96759.81;;;12.97;24.42
13027;BME280;6580;42.680;23.324;2023-02-10T13:02:55;96770.41;;;13.75;23.67
13027;BME280;6580;42.680;23.324;2023-02-10T13:05:27;96762.38;;;14.87;22.66
13027;BME280;6580;42.680;23.324;2023-02-10T13:07:56;96763.94;;;13.87;23.14
13027;BME280;6580;42.680;23.324;2023-02-10T13:10:31;96761.50;;;13.37;24.06
13027;BME280;6580;42.680;23.324;2023-02-10T13:13:03;96774.19;;;11.73;25.25
13027;BME280;6580;42.680;23.324;2023-02-10T13:15:37;96766.28;;;11.29;25.66
13027;BME280;6580;42.680;23.324;2023-02-10T13:18:17;96781.13;;;10.57;26.87
13027;BME280;6580;42.680;23.324;2023-02-10T13:21:00;96774.13;;;10.67;26.91
13027;BME280;6580;42.680;23.324;2023-02-10T13:23:37;96773.78;;;11.57;26.57
13027;BME280;6580;42.680;23.324;2023-02-10T13:29:09;96767.44;;;12.51;25.12
13027;BME280;6580;42.680;23.324;2023-02-10T13:32:07;96769.97;;;11.91;25.91
13027;BME280;6580;42.680;23.324;2023-02-10T13:34:42;96768.09;;;12.23;25.72
13027;BME280;6580;42.680;23.324;2023-02-10T13:37:16;96762.72;;;11.51;26.01